South Egremont, MA (01252)

10:14 PM EST on December 24, 2014 (GMT -0500)
Catamount Summit | Change Station
CLOSE
Current Station
Personal Weather Station
Location: Hillsdale, NY
Elevation: 915 ft
Nearby Weather Stations
Active Advisory: Areal Flood Watch, Wind Advisory

Elev 915 ft 42.17 °N, 73.48 °W | Updated 6 seconds ago

Fog
Fog
56.3 °F
Feels Like 56.3 °F
N
6.3
Wind Variable Wind from WSW
Gusts 12.3 mph

Today
High -- | Low -- °F
--% Chance of Precip.
Yesterday
High -- | Low -- °F
Precip. -- in
7:20 AM 4:26 PM
Waxing Crescent, 13% visible
Pressure 29.54 in
Visibility 0.5 miles
Clouds
Dew Point 56 °F
Humidity 98%
Rainfall 0.13 in
Snow Depth Not available.
UV Not available.
Pollen .10 out of 12
Air Quality Not available.
Flu Activity Not available.
METAR KPSF 250254Z AUTO 34003KT 1/2SM FG VV002 07/07 A2954 RMK AO2 SLP002 P0001 60004 T00670067 55015

More Conditions Fewer Conditions

Pressure 29.54 in
Visibility 0.5 miles
Clouds
Dew Point 56 °F
Humidity 98%
Rainfall 0.13 in
Snow Depth Not available.
UV Not available.
Pollen .10 out of 12
Air Quality Not available.
Flu Activity Not available.
METAR KPSF 250254Z AUTO 34003KT 1/2SM FG VV002 07/07 A2954 RMK AO2 SLP002 P0001 60004 T00670067 55015

More Conditions Fewer Conditions

10-Day Weather Forecast

Almanac

Astronomy

Dec. 24, 2014 Rise Set
Actual Time
Civil Twilight
Nautical Twilight
Astronomical Twilight
Moon
Length of Visible Light
Length of Day
Tomorrow will be .
, % of the Moon is Illuminated

Today's Extremes

State Highs State Lows

Community

WunderPhotos

Upload Photos

1,780,224 photos uploaded!

WunderBlogs® & News

Nearby

Air Quality

  Air Quality AQ Index Pollutant
Not available.

Snow Depth

Station Depth Elevation

Earthquake Activity

City Distance Mag. Time & Date
Minimum magnitude displayed is 2.5.

Coastal Water Temperatures

Place Temperature

Nearby Weather Stations